createdAt,value
2023-04-21T17:15:30.398Z,18.50
2023-04-21T17:19:59.883Z,18.22
2023-04-21T17:24:38.030Z,17.87
2023-04-21T17:28:55.384Z,17.59
2023-04-21T17:33:26.808Z,17.39
2023-04-21T17:38:01.119Z,17.18
2023-04-21T17:42:40.355Z,16.95
2023-04-21T17:47:12.707Z,16.78
2023-04-21T17:51:44.051Z,16.66
2023-04-21T17:56:13.736Z,16.43
2023-04-21T18:02:10.192Z,16.23
2023-04-21T18:05:24.762Z,15.97
2023-04-21T18:09:55.595Z,15.66
2023-04-21T18:14:25.231Z,15.27
2023-04-21T18:19:27.497Z,14.94
2023-04-21T18:23:19.360Z,14.50
2023-04-21T18:27:00.520Z,14.07
2023-04-21T18:30:51.069Z,13.69
2023-04-21T18:34:41.846Z,13.27
2023-04-21T18:38:15.815Z,12.99
2023-04-21T18:42:08.695Z,12.81
2023-04-21T18:45:58.071Z,12.71
2023-04-21T18:49:47.372Z,12.63
2023-04-21T18:53:37.339Z,12.58
2023-04-21T18:57:09.994Z,12.47
2023-04-21T19:00:40.167Z,12.36
2023-04-21T19:04:11.474Z,12.34
2023-04-21T19:08:01.179Z,12.32
2023-04-21T19:11:53.691Z,12.09
2023-04-21T19:15:43.829Z,11.94
2023-04-21T19:19:33.080Z,11.88
2023-04-21T19:22:50.449Z,11.72
2023-04-21T19:26:30.783Z,11.62
2023-04-21T19:29:43.830Z,11.44
2023-04-21T19:33:32.702Z,11.31
2023-04-21T19:37:13.047Z,11.09
2023-04-21T19:40:38.418Z,10.89
2023-04-21T19:44:25.864Z,10.69
2023-04-21T19:47:34.090Z,10.67
2023-04-21T19:50:59.040Z,10.74
2023-04-21T19:53:43.867Z,10.81
2023-04-21T19:57:06.377Z,10.84
2023-04-21T20:00:01.048Z,10.83
2023-04-21T20:03:13.677Z,10.86
2023-04-21T20:06:13.440Z,10.69
2023-04-21T20:09:06.900Z,10.69
2023-04-21T20:12:07.189Z,10.55
2023-04-21T20:14:54.295Z,10.37
2023-04-21T20:17:38.517Z,10.23
2023-04-21T20:20:17.858Z,10.11
2023-04-21T20:22:51.979Z,10.14
2023-04-21T20:25:44.320Z,10.03
2023-04-21T20:29:05.637Z,10.08
2023-04-21T20:32:37.448Z,10.04
2023-04-21T20:36:09.940Z,10.00
2023-04-21T20:39:23.662Z,9.95
2023-04-21T20:42:48.660Z,9.86
2023-04-21T20:46:19.571Z,9.75
2023-04-21T20:49:02.142Z,9.64
2023-04-21T20:52:40.101Z,9.58
2023-04-21T20:55:56.609Z,9.50
2023-04-21T20:59:26.316Z,9.40
2023-04-21T21:03:16.133Z,9.31
2023-04-21T21:06:48.653Z,9.24
2023-04-21T21:09:58.462Z,8.95
2023-04-21T21:13:37.754Z,8.70
2023-04-21T21:17:26.632Z,8.82
2023-04-21T21:21:16.262Z,9.17
2023-04-21T21:25:07.828Z,9.65
2023-04-21T21:28:38.521Z,10.01
2023-04-21T21:32:07.363Z,10.08
2023-04-21T21:35:39.828Z,10.07
2023-04-21T21:39:17.847Z,10.01
2023-04-21T21:43:00.172Z,9.88
2023-04-21T21:46:46.863Z,9.77
2023-04-21T21:50:20.691Z,9.66
2023-04-21T21:53:54.403Z,9.62
2023-04-21T21:57:26.041Z,9.64
2023-04-21T22:00:47.226Z,9.66
2023-04-21T22:03:58.560Z,9.65
2023-04-21T22:07:38.950Z,9.64
2023-04-21T22:10:34.019Z,9.57
2023-04-21T22:14:21.174Z,9.49
2023-04-21T22:18:00.232Z,9.44
2023-04-21T22:21:23.862Z,9.43
2023-04-21T22:25:12.809Z,9.22
2023-04-21T22:28:53.224Z,9.25
2023-04-21T22:32:25.921Z,9.35
2023-04-21T22:36:15.057Z,9.43
2023-04-21T22:39:31.344Z,9.49
2023-04-21T22:42:44.353Z,9.47
2023-04-21T22:45:54.074Z,9.41
2023-04-21T22:48:56.528Z,9.41
2023-04-21T22:52:01.891Z,9.37
2023-04-21T22:55:38.722Z,9.33
2023-04-21T22:59:15.036Z,9.25
2023-04-21T23:02:20.035Z,9.17
2023-04-21T23:05:29.265Z,9.19
2023-04-21T23:08:53.895Z,9.17
2023-04-21T23:12:16.358Z,9.13
2023-04-21T23:15:27.688Z,9.05
2023-04-21T23:18:57.097Z,8.99
2023-04-21T23:22:24.105Z,8.93
2023-04-21T23:25:40.809Z,8.91
2023-04-21T23:29:18.178Z,8.85
2023-04-21T23:32:27.015Z,8.76
2023-04-21T23:36:05.201Z,8.75
2023-04-21T23:39:21.553Z,8.72
2023-04-21T23:42:29.844Z,8.70
2023-04-21T23:45:55.017Z,8.69
2023-04-21T23:48:36.050Z,8.61
2023-04-21T23:51:17.510Z,8.61
2023-04-21T23:55:06.481Z,8.63
2023-04-21T23:58:54.409Z,8.53
